createdAt,value
2022-10-08T00:00:27.402Z,16.30
2022-10-08T00:01:30.080Z,16.31
2022-10-08T00:02:33.228Z,16.25
2022-10-08T00:03:38.503Z,16.38
2022-10-08T00:04:40.674Z,16.27
2022-10-08T00:05:42.943Z,16.34
2022-10-08T00:06:45.077Z,16.25
2022-10-08T00:07:47.884Z,16.22
2022-10-08T00:08:53.442Z,16.53
2022-10-08T00:09:55.509Z,16.24
2022-10-08T00:11:00.602Z,16.34
2022-10-08T00:12:02.794Z,16.05
2022-10-08T00:13:04.922Z,16.06
2022-10-08T00:14:08.041Z,16.28
2022-10-08T00:15:10.412Z,16.17
2022-10-08T00:16:40.073Z,16.67
2022-10-08T00:17:42.231Z,16.17
2022-10-08T00:18:47.075Z,16.28
2022-10-08T00:19:49.181Z,16.19
2022-10-08T00:20:51.329Z,16.13
2022-10-08T00:21:56.881Z,16.12
2022-10-08T00:22:59.573Z,16.20
2022-10-08T00:24:03.352Z,16.43
2022-10-08T00:25:05.850Z,16.43
2022-10-08T00:26:08.112Z,16.36
2022-10-08T00:27:12.639Z,16.28
2022-10-08T00:28:14.794Z,16.30
2022-10-08T00:29:20.017Z,16.61
2022-10-08T00:30:22.120Z,16.33
2022-10-08T00:31:28.580Z,16.39
2022-10-08T00:32:30.848Z,16.38
2022-10-08T00:33:36.134Z,16.33
2022-10-08T00:34:39.854Z,16.40
2022-10-08T00:35:42.044Z,16.33
2022-10-08T00:36:44.990Z,16.36
2022-10-08T00:37:47.158Z,16.42
2022-10-08T00:38:50.014Z,16.42
2022-10-08T00:39:52.177Z,16.58
2022-10-08T00:40:54.262Z,16.22
2022-10-08T00:41:56.798Z,16.45
2022-10-08T00:43:00.569Z,16.47
2022-10-08T00:44:24.003Z,16.65
2022-10-08T00:45:26.332Z,16.54
2022-10-08T00:46:34.734Z,16.96
2022-10-08T00:47:48.945Z,16.87
2022-10-08T00:48:57.065Z,16.88
2022-10-08T00:50:03.920Z,16.36
2022-10-08T00:51:06.189Z,16.35
2022-10-08T00:52:08.432Z,16.33
2022-10-08T00:53:10.543Z,16.48
2022-10-08T00:54:13.748Z,16.33
2022-10-08T00:55:18.689Z,16.54
2022-10-08T00:56:22.265Z,16.59
2022-10-08T00:57:26.762Z,16.40
2022-10-08T00:58:30.556Z,16.58
2022-10-08T00:59:32.749Z,16.32
2022-10-08T01:00:34.916Z,16.16
2022-10-08T01:01:37.738Z,16.32
2022-10-08T01:02:40.520Z,16.29
2022-10-08T01:03:42.673Z,16.08
2022-10-08T01:04:46.525Z,16.04
2022-10-08T01:06:04.015Z,16.13
2022-10-08T01:07:24.707Z,16.43
2022-10-08T01:08:55.888Z,16.60
2022-10-08T01:10:07.763Z,16.39
2022-10-08T01:11:28.773Z,16.63
2022-10-08T01:12:30.752Z,16.82
2022-10-08T01:14:03.468Z,16.48
2022-10-08T01:15:14.377Z,16.41
2022-10-08T01:16:25.027Z,16.69
2022-10-08T01:17:56.320Z,16.68
2022-10-08T01:19:26.231Z,16.57
2022-10-08T01:20:31.314Z,16.56
2022-10-08T01:22:00.213Z,16.85
2022-10-08T01:23:20.476Z,17.05
2022-10-08T01:24:55.601Z,16.98
2022-10-08T01:26:25.452Z,16.91
2022-10-08T01:27:32.741Z,16.98
2022-10-08T01:28:42.147Z,16.95
2022-10-08T01:29:50.242Z,16.84
2022-10-08T01:30:56.373Z,16.87
2022-10-08T01:32:03.820Z,16.79
2022-10-08T01:33:15.145Z,16.84
2022-10-08T01:34:30.406Z,16.94
2022-10-08T01:35:37.707Z,16.92
2022-10-08T01:36:48.867Z,16.73
2022-10-08T01:37:55.898Z,16.72
2022-10-08T01:39:03.011Z,16.89
2022-10-08T01:40:10.057Z,16.84
2022-10-08T01:41:15.933Z,16.88
2022-10-08T01:42:23.325Z,16.87
2022-10-08T01:43:29.039Z,16.94
2022-10-08T01:44:39.287Z,16.74
2022-10-08T01:45:48.092Z,17.08
2022-10-08T01:46:53.113Z,16.85
2022-10-08T01:47:59.877Z,17.17
2022-10-08T01:49:08.206Z,17.29
2022-10-08T01:50:16.523Z,17.34
2022-10-08T01:51:27.905Z,17.49
2022-10-08T01:52:37.030Z,17.33
2022-10-08T01:53:42.349Z,17.30
2022-10-08T01:54:48.206Z,17.32
2022-10-08T01:55:53.309Z,17.49
2022-10-08T01:56:58.151Z,17.52
2022-10-08T01:58:05.807Z,17.44
2022-10-08T01:59:17.037Z,17.05
2022-10-08T02:00:19.295Z,17.05
2022-10-08T02:01:36.507Z,17.15
2022-10-08T02:02:39.590Z,17.23
2022-10-08T02:04:01.748Z,17.15
2022-10-08T02:05:05.257Z,17.35
2022-10-08T02:06:07.995Z,17.18
2022-10-08T02:07:31.334Z,17.49
2022-10-08T02:08:33.465Z,17.25
2022-10-08T02:09:40.953Z,17.45
2022-10-08T02:10:43.580Z,17.32
2022-10-08T02:11:45.667Z,17.21
2022-10-08T02:12:48.255Z,17.14
2022-10-08T02:13:50.638Z,17.17
2022-10-08T02:14:55.123Z,17.41
2022-10-08T02:16:05.055Z,17.22
2022-10-08T02:17:32.036Z,17.76
2022-10-08T02:19:02.936Z,17.77
2022-10-08T02:20:26.465Z,17.42
2022-10-08T02:21:29.660Z,17.50
2022-10-08T02:22:58.852Z,17.52
2022-10-08T02:24:22.992Z,17.50
2022-10-08T02:25:49.391Z,17.46
2022-10-08T02:26:56.901Z,17.43
2022-10-08T02:28:11.471Z,17.48
2022-10-08T02:29:29.004Z,17.42
2022-10-08T02:30:50.709Z,17.42
2022-10-08T02:32:04.771Z,17.59
2022-10-08T02:33:15.599Z,17.57
2022-10-08T02:34:37.772Z,17.82
2022-10-08T02:35:52.059Z,17.58
2022-10-08T02:37:00.528Z,17.51
2022-10-08T02:38:10.657Z,17.50
2022-10-08T02:39:16.112Z,17.36
2022-10-08T02:40:20.587Z,17.37
2022-10-08T02:41:28.646Z,17.59
2022-10-08T02:42:33.009Z,17.39
2022-10-08T02:43:41.372Z,17.52
2022-10-08T02:44:50.341Z,17.49
2022-10-08T02:45:58.006Z,17.63
2022-10-08T02:47:06.209Z,17.39
2022-10-08T02:48:18.948Z,17.46
2022-10-08T02:49:28.406Z,17.43
2022-10-08T02:50:33.035Z,17.30
2022-10-08T02:51:40.064Z,17.33
2022-10-08T02:52:45.505Z,17.33
2022-10-08T02:53:49.516Z,17.14
2022-10-08T02:54:52.797Z,17.20
2022-10-08T02:56:00.648Z,17.46
2022-10-08T02:57:13.616Z,17.60
2022-10-08T02:58:16.582Z,17.44
2022-10-08T02:59:20.773Z,17.39
2022-10-08T03:00:23.525Z,17.33
2022-10-08T03:01:44.288Z,17.58
2022-10-08T03:02:58.406Z,17.75
2022-10-08T03:04:06.215Z,17.45
2022-10-08T03:05:16.512Z,17.51
2022-10-08T03:06:19.029Z,17.32
2022-10-08T03:07:24.196Z,17.40
2022-10-08T03:08:26.512Z,17.22
2022-10-08T03:09:33.882Z,17.30
2022-10-08T03:10:39.898Z,17.08
2022-10-08T03:11:42.445Z,17.03
2022-10-08T03:12:44.875Z,16.94
2022-10-08T03:13:48.620Z,17.12
2022-10-08T03:14:52.321Z,16.90
2022-10-08T03:15:56.059Z,16.80
2022-10-08T03:16:58.179Z,16.66
2022-10-08T03:18:03.839Z,16.83
2022-10-08T03:19:08.926Z,17.07
2022-10-08T03:20:12.302Z,17.08
2022-10-08T03:21:15.697Z,17.25
2022-10-08T03:22:17.937Z,17.13
2022-10-08T03:23:20.130Z,17.18
2022-10-08T03:24:22.550Z,17.21
2022-10-08T03:25:24.696Z,16.92
2022-10-08T03:26:26.788Z,17.06
2022-10-08T03:27:29.036Z,16.96
2022-10-08T03:28:31.244Z,17.03
2022-10-08T03:29:33.426Z,16.77
2022-10-08T03:30:35.699Z,16.81
2022-10-08T03:31:37.880Z,16.97
2022-10-08T03:32:40.023Z,16.75
2022-10-08T03:33:42.118Z,16.68
2022-10-08T03:34:44.177Z,16.89
2022-10-08T03:35:46.896Z,16.95
2022-10-08T03:36:49.019Z,16.96
2022-10-08T03:37:53.459Z,17.12
2022-10-08T03:38:55.535Z,16.97
2022-10-08T03:39:57.680Z,16.90
2022-10-08T03:40:59.874Z,16.76
2022-10-08T03:42:02.045Z,16.88
2022-10-08T03:43:04.127Z,16.94
2022-10-08T03:44:10.725Z,17.25
2022-10-08T03:45:12.909Z,17.00
2022-10-08T03:46:15.405Z,16.47
2022-10-08T03:47:17.592Z,16.37
2022-10-08T03:48:21.844Z,16.66
2022-10-08T03:49:23.941Z,16.69
2022-10-08T03:50:26.153Z,16.73
2022-10-08T03:51:28.371Z,16.65
2022-10-08T03:52:30.929Z,16.76
2022-10-08T03:53:34.961Z,16.82
2022-10-08T03:54:37.128Z,16.68
2022-10-08T03:55:39.286Z,16.77
2022-10-08T03:56:41.397Z,16.81
2022-10-08T03:57:43.533Z,16.90
2022-10-08T03:58:46.780Z,17.10
2022-10-08T03:59:48.935Z,17.04
2022-10-08T04:01:06.330Z,17.22
2022-10-08T04:02:08.572Z,16.75
2022-10-08T04:03:11.117Z,16.94
2022-10-08T04:04:13.226Z,16.80
2022-10-08T04:05:15.297Z,16.95
2022-10-08T04:06:17.886Z,16.96
2022-10-08T04:07:20.003Z,16.98
2022-10-08T04:08:22.596Z,16.96
2022-10-08T04:09:24.746Z,17.06
2022-10-08T04:10:26.866Z,16.92
2022-10-08T04:11:29.561Z,16.84
2022-10-08T04:12:31.642Z,16.52
2022-10-08T04:13:35.178Z,16.91
2022-10-08T04:14:37.282Z,16.72
2022-10-08T04:15:39.454Z,16.75
2022-10-08T04:16:41.585Z,16.86
2022-10-08T04:17:43.774Z,16.49
2022-10-08T04:18:47.260Z,16.64
2022-10-08T04:19:49.587Z,16.56
2022-10-08T04:20:51.763Z,16.72
2022-10-08T04:21:53.885Z,16.59
2022-10-08T04:22:55.985Z,16.65
2022-10-08T04:23:58.082Z,16.71
2022-10-08T04:25:00.217Z,16.69
2022-10-08T04:26:02.852Z,16.84
2022-10-08T04:27:04.948Z,16.71
2022-10-08T04:28:07.050Z,16.42
2022-10-08T04:29:12.382Z,16.51
2022-10-08T04:30:15.631Z,16.46
2022-10-08T04:31:21.547Z,16.58
2022-10-08T04:32:23.869Z,16.25
2022-10-08T04:33:27.190Z,16.55
2022-10-08T04:34:29.893Z,16.37
2022-10-08T04:35:31.944Z,16.04
2022-10-08T04:36:34.081Z,16.06
2022-10-08T04:37:36.214Z,16.10
2022-10-08T04:38:38.697Z,16.16
2022-10-08T04:39:40.820Z,15.94
2022-10-08T04:40:42.971Z,15.87
2022-10-08T04:41:45.073Z,15.94
2022-10-08T04:42:51.980Z,16.10
2022-10-08T04:43:58.249Z,16.02
2022-10-08T04:45:00.455Z,15.86
2022-10-08T04:46:03.694Z,16.06
2022-10-08T04:47:05.945Z,15.95
2022-10-08T04:48:08.061Z,15.70
2022-10-08T04:49:10.280Z,15.74
2022-10-08T04:50:12.504Z,15.80
2022-10-08T04:51:14.713Z,15.93
2022-10-08T04:52:18.821Z,15.87
2022-10-08T04:53:21.051Z,15.71
2022-10-08T04:54:23.186Z,15.50
2022-10-08T04:55:25.276Z,15.52
2022-10-08T04:56:30.000Z,15.86
2022-10-08T04:57:32.075Z,15.62
2022-10-08T04:58:34.178Z,15.55
2022-10-08T04:59:41.934Z,15.69
2022-10-08T05:00:51.811Z,15.62
2022-10-08T05:01:56.933Z,15.84
2022-10-08T05:02:59.198Z,15.60
2022-10-08T05:04:01.450Z,15.56
2022-10-08T05:05:03.939Z,15.66
2022-10-08T05:06:06.545Z,15.52
2022-10-08T05:07:08.675Z,15.73
2022-10-08T05:08:11.031Z,15.65
2022-10-08T05:09:13.173Z,15.62
2022-10-08T05:10:15.333Z,15.64
2022-10-08T05:11:18.949Z,15.81
2022-10-08T05:12:21.089Z,15.66
2022-10-08T05:13:23.223Z,15.65
2022-10-08T05:14:25.408Z,15.56
2022-10-08T05:15:27.978Z,15.60
2022-10-08T05:16:30.136Z,15.47
2022-10-08T05:17:32.198Z,15.31
2022-10-08T05:18:35.949Z,15.47
2022-10-08T05:19:38.062Z,15.46
2022-10-08T05:20:40.334Z,15.37
2022-10-08T05:21:42.444Z,15.46
2022-10-08T05:22:44.835Z,15.34
2022-10-08T05:23:47.584Z,15.44
2022-10-08T05:24:49.696Z,15.23
2022-10-08T05:25:51.773Z,15.32
2022-10-08T05:26:58.495Z,15.28
2022-10-08T05:28:02.757Z,15.27
2022-10-08T05:29:05.474Z,15.17
2022-10-08T05:30:08.237Z,15.35
2022-10-08T05:31:10.692Z,15.32
2022-10-08T05:32:12.801Z,15.31
2022-10-08T05:33:14.879Z,15.34
2022-10-08T05:34:17.081Z,15.25
2022-10-08T05:35:19.261Z,15.17
2022-10-08T05:36:23.697Z,15.30
2022-10-08T05:37:26.084Z,15.06
2022-10-08T05:38:34.020Z,15.35
2022-10-08T05:39:36.980Z,15.09
2022-10-08T05:40:39.168Z,15.15
2022-10-08T05:41:41.896Z,15.17
2022-10-08T05:42:44.198Z,15.12
2022-10-08T05:43:46.927Z,15.12
2022-10-08T05:44:49.100Z,15.16
2022-10-08T05:45:51.912Z,15.24
2022-10-08T05:46:54.109Z,15.16
2022-10-08T05:47:56.425Z,15.00
2022-10-08T05:49:01.340Z,15.25
2022-10-08T05:50:03.763Z,14.78
2022-10-08T05:51:14.824Z,15.34
2022-10-08T05:52:17.228Z,15.12
2022-10-08T05:53:19.301Z,15.10
2022-10-08T05:54:21.891Z,15.11
2022-10-08T05:55:24.060Z,14.99
2022-10-08T05:56:27.779Z,15.22
2022-10-08T05:57:29.881Z,14.91
2022-10-08T05:58:34.929Z,15.13
2022-10-08T05:59:37.047Z,15.00
2022-10-08T06:00:39.137Z,14.95
2022-10-08T06:01:41.225Z,14.94
2022-10-08T06:02:43.348Z,14.98
2022-10-08T06:04:08.658Z,15.28
2022-10-08T06:05:11.333Z,15.08
2022-10-08T06:06:13.479Z,15.09
2022-10-08T06:07:15.768Z,15.11
2022-10-08T06:08:17.960Z,15.04
2022-10-08T06:09:20.948Z,15.10
2022-10-08T06:10:26.169Z,15.33
2022-10-08T06:11:30.106Z,15.07
2022-10-08T06:12:32.173Z,15.05
2022-10-08T06:13:34.617Z,14.68
2022-10-08T06:14:36.737Z,14.97
2022-10-08T06:15:38.811Z,15.08
2022-10-08T06:16:41.165Z,15.17
2022-10-08T06:17:43.294Z,15.04
2022-10-08T06:18:45.388Z,15.09
2022-10-08T06:19:47.468Z,15.11
2022-10-08T06:20:49.572Z,15.13
2022-10-08T06:21:51.744Z,15.25
2022-10-08T06:22:53.804Z,14.94
2022-10-08T06:23:58.209Z,15.37
2022-10-08T06:25:00.260Z,15.47
2022-10-08T06:26:07.856Z,15.80
2022-10-08T06:27:09.951Z,15.58
2022-10-08T06:28:13.028Z,15.63
2022-10-08T06:29:17.355Z,15.87
2022-10-08T06:30:19.497Z,15.87
2022-10-08T06:31:21.837Z,16.15
2022-10-08T06:32:23.926Z,16.08
2022-10-08T06:33:26.662Z,16.28
2022-10-08T06:34:28.729Z,16.20
2022-10-08T06:35:30.830Z,16.25
2022-10-08T06:36:34.601Z,16.77
2022-10-08T06:37:36.761Z,16.74
2022-10-08T06:38:39.134Z,17.12
2022-10-08T06:39:44.941Z,17.21
2022-10-08T06:40:49.695Z,17.12
2022-10-08T06:41:51.836Z,17.41
2022-10-08T06:42:53.940Z,17.24
2022-10-08T06:43:56.304Z,17.45
2022-10-08T06:45:02.094Z,17.77
2022-10-08T06:46:06.252Z,18.33
2022-10-08T06:47:08.356Z,18.02
2022-10-08T06:48:11.338Z,18.59
2022-10-08T06:49:13.484Z,18.84
2022-10-08T06:50:15.711Z,18.86
2022-10-08T06:51:18.977Z,18.94
2022-10-08T06:52:21.071Z,18.84
2022-10-08T06:53:23.185Z,18.75
2022-10-08T06:54:27.274Z,18.86
2022-10-08T06:55:29.596Z,18.52
2022-10-08T06:56:31.713Z,18.89
2022-10-08T06:57:33.829Z,19.21
2022-10-08T06:58:36.549Z,19.45
2022-10-08T06:59:38.625Z,19.57
2022-10-08T07:00:40.755Z,19.52
2022-10-08T07:01:43.047Z,19.70
2022-10-08T07:02:45.707Z,19.66
2022-10-08T07:03:53.943Z,20.14
2022-10-08T07:04:56.067Z,20.23
2022-10-08T07:06:07.038Z,20.52
2022-10-08T07:07:09.125Z,20.44
2022-10-08T07:08:11.226Z,20.37
2022-10-08T07:09:13.485Z,20.86
2022-10-08T07:10:18.459Z,20.16
2022-10-08T07:11:22.187Z,20.99
2022-10-08T07:12:24.372Z,20.98
2022-10-08T07:13:26.493Z,20.81
2022-10-08T07:14:28.617Z,20.91
2022-10-08T07:15:32.650Z,21.04
2022-10-08T07:16:34.841Z,20.73
2022-10-08T07:17:36.995Z,21.20
2022-10-08T07:18:40.524Z,21.37
2022-10-08T07:19:42.615Z,21.94
2022-10-08T07:20:44.750Z,21.90
2022-10-08T07:21:46.863Z,22.18
2022-10-08T07:22:49.395Z,22.46
2022-10-08T07:23:51.937Z,22.16
2022-10-08T07:24:54.019Z,22.49
2022-10-08T07:26:19.637Z,22.61
2022-10-08T07:27:21.697Z,22.33
2022-10-08T07:28:25.243Z,22.32
2022-10-08T07:29:27.686Z,22.51
2022-10-08T07:30:29.890Z,21.89
2022-10-08T07:31:35.215Z,22.23
2022-10-08T07:32:37.353Z,22.75
2022-10-08T07:33:42.246Z,22.32
2022-10-08T07:34:44.377Z,22.35
2022-10-08T07:35:47.097Z,22.56
2022-10-08T07:36:49.217Z,22.52
2022-10-08T07:37:51.281Z,23.25
2022-10-08T07:38:57.820Z,22.81
2022-10-08T07:39:59.892Z,21.85
2022-10-08T07:41:01.973Z,22.29
2022-10-08T07:42:04.121Z,23.10
2022-10-08T07:43:06.217Z,22.58
2022-10-08T07:44:10.406Z,22.50
2022-10-08T07:45:12.516Z,23.51
2022-10-08T07:46:14.680Z,23.92
2022-10-08T07:47:16.904Z,23.21
2022-10-08T07:48:20.614Z,22.92
2022-10-08T07:49:22.749Z,22.45
2022-10-08T07:50:24.855Z,22.63
2022-10-08T07:51:29.835Z,22.71
2022-10-08T07:52:31.988Z,22.23
2022-10-08T07:53:34.728Z,22.09
2022-10-08T07:54:36.870Z,21.69
2022-10-08T07:55:38.957Z,21.14
2022-10-08T07:56:41.434Z,21.13
2022-10-08T07:57:43.540Z,21.41
2022-10-08T07:58:47.256Z,21.88
2022-10-08T07:59:49.370Z,22.06
2022-10-08T08:00:56.811Z,21.89
2022-10-08T08:01:58.928Z,22.63
2022-10-08T08:03:01.048Z,22.88
2022-10-08T08:04:08.879Z,23.19
2022-10-08T08:05:10.980Z,22.68
2022-10-08T08:06:15.899Z,22.26
2022-10-08T08:07:18.000Z,22.91
2022-10-08T08:08:25.047Z,23.49
2022-10-08T08:09:27.194Z,22.65
2022-10-08T08:10:29.322Z,22.20
2022-10-08T08:11:31.574Z,21.95
2022-10-08T08:12:34.042Z,22.34
2022-10-08T08:13:37.845Z,23.33
2022-10-08T08:14:39.915Z,23.71
2022-10-08T08:15:42.034Z,24.36
2022-10-08T08:16:44.194Z,24.55
2022-10-08T08:17:46.357Z,24.45
2022-10-08T08:18:51.686Z,24.47
2022-10-08T08:19:53.780Z,23.59
2022-10-08T08:21:07.011Z,23.85
2022-10-08T08:22:09.112Z,24.11
2022-10-08T08:23:11.210Z,22.74
2022-10-08T08:24:13.934Z,23.15
2022-10-08T08:25:16.061Z,22.86
2022-10-08T08:26:23.616Z,22.52
2022-10-08T08:27:25.769Z,21.60
2022-10-08T08:28:28.896Z,20.89
2022-10-08T08:29:31.472Z,20.42
2022-10-08T08:30:33.547Z,20.53
2022-10-08T08:31:38.537Z,20.42
2022-10-08T08:32:40.815Z,20.02
2022-10-08T08:33:46.965Z,20.38
2022-10-08T08:34:49.050Z,20.39
2022-10-08T08:35:52.498Z,21.49
2022-10-08T08:36:54.691Z,21.31
2022-10-08T08:37:56.891Z,21.89
2022-10-08T08:38:59.395Z,22.17
2022-10-08T08:40:01.604Z,23.05
2022-10-08T08:41:13.616Z,23.88
2022-10-08T08:42:44.284Z,22.95
2022-10-08T08:43:47.554Z,23.05
2022-10-08T08:44:58.897Z,23.88
2022-10-08T08:46:02.666Z,23.81
2022-10-08T08:47:20.962Z,23.44
2022-10-08T08:48:26.653Z,22.46
2022-10-08T08:49:36.602Z,22.09
2022-10-08T08:50:48.587Z,22.74
2022-10-08T08:51:53.348Z,22.59
2022-10-08T08:52:56.123Z,22.87
2022-10-08T08:53:59.883Z,23.05
2022-10-08T08:55:02.344Z,23.71
2022-10-08T08:56:08.077Z,23.21
2022-10-08T08:57:32.752Z,23.76
2022-10-08T08:58:42.550Z,24.13
2022-10-08T08:59:47.669Z,23.94
2022-10-08T09:00:56.926Z,23.43
2022-10-08T09:02:03.703Z,23.56
2022-10-08T09:03:14.524Z,22.55
2022-10-08T09:04:29.413Z,21.66
2022-10-08T09:05:36.087Z,21.55
2022-10-08T09:06:40.093Z,20.79
2022-10-08T09:07:46.942Z,20.06
2022-10-08T09:08:58.082Z,19.73
2022-10-08T09:10:01.700Z,18.92
2022-10-08T09:11:05.125Z,19.57
2022-10-08T09:12:23.003Z,19.64
2022-10-08T09:13:29.613Z,19.41
2022-10-08T09:14:40.619Z,19.45
2022-10-08T09:15:42.998Z,19.16
2022-10-08T09:16:45.355Z,19.12
2022-10-08T09:17:52.195Z,19.72
2022-10-08T09:18:54.648Z,19.95
2022-10-08T09:19:57.441Z,19.06
2022-10-08T09:20:59.517Z,18.25
2022-10-08T09:22:01.649Z,18.66
2022-10-08T09:23:22.028Z,19.01
2022-10-08T09:24:24.250Z,18.89
2022-10-08T09:25:32.790Z,19.32
2022-10-08T09:26:35.860Z,19.25
2022-10-08T09:27:46.837Z,19.82
2022-10-08T09:28:54.863Z,20.04
2022-10-08T09:29:56.959Z,20.48
2022-10-08T09:31:13.503Z,20.77
2022-10-08T09:32:18.990Z,21.16
2022-10-08T09:33:29.518Z,21.02
2022-10-08T09:34:31.856Z,20.47
2022-10-08T09:35:39.892Z,20.51
2022-10-08T09:36:50.869Z,20.49
2022-10-08T09:37:53.877Z,19.61
2022-10-08T09:39:00.301Z,19.56
2022-10-08T09:40:13.027Z,19.60
2022-10-08T09:41:20.051Z,19.33
2022-10-08T09:42:22.167Z,18.99
2022-10-08T09:43:24.718Z,18.77
2022-10-08T09:44:26.941Z,18.79
2022-10-08T09:45:33.965Z,18.63
2022-10-08T09:46:36.076Z,18.21
2022-10-08T09:47:38.163Z,18.36
2022-10-08T09:48:41.617Z,18.05
2022-10-08T09:49:44.960Z,18.28
2022-10-08T09:50:48.948Z,18.59
2022-10-08T09:51:51.256Z,18.25
2022-10-08T09:52:55.996Z,18.03
2022-10-08T09:53:59.652Z,18.47
2022-10-08T09:55:28.848Z,18.32
2022-10-08T09:56:31.316Z,17.35
2022-10-08T09:57:35.244Z,17.39
2022-10-08T09:58:50.127Z,17.51
2022-10-08T10:00:01.260Z,17.77
2022-10-08T10:01:14.280Z,17.83
2022-10-08T10:02:26.556Z,18.23
2022-10-08T10:03:30.141Z,17.71
2022-10-08T10:04:36.549Z,19.03
2022-10-08T10:05:39.770Z,19.33
2022-10-08T10:06:46.070Z,20.00
2022-10-08T10:07:48.210Z,20.43
2022-10-08T10:08:59.364Z,21.03
2022-10-08T10:10:03.205Z,21.41
2022-10-08T10:11:05.605Z,21.40
2022-10-08T10:12:25.134Z,21.85
2022-10-08T10:13:36.311Z,22.71
2022-10-08T10:14:43.803Z,23.05
2022-10-08T10:16:22.175Z,23.74
2022-10-08T10:17:57.159Z,25.18
2022-10-08T10:19:04.667Z,25.84
2022-10-08T10:20:31.410Z,25.75
2022-10-08T10:21:52.559Z,24.26
2022-10-08T10:23:08.790Z,25.15
2022-10-08T10:24:56.302Z,25.71
2022-10-08T10:26:06.819Z,26.54
2022-10-08T10:27:11.539Z,26.75
2022-10-08T10:28:19.610Z,26.78
2022-10-08T10:29:27.156Z,25.56
2022-10-08T10:30:31.782Z,23.83
2022-10-08T10:31:38.705Z,23.15
2022-10-08T10:32:47.369Z,22.90
2022-10-08T10:34:09.537Z,22.71
2022-10-08T10:35:17.281Z,20.71
2022-10-08T10:36:22.170Z,20.70
2022-10-08T10:37:34.242Z,20.13
2022-10-08T10:38:43.217Z,19.78
2022-10-08T10:40:23.753Z,20.51
2022-10-08T10:41:43.333Z,20.26
2022-10-08T10:43:25.755Z,21.61
2022-10-08T10:44:36.930Z,22.28
2022-10-08T10:45:43.460Z,22.14
2022-10-08T10:46:55.950Z,21.46
2022-10-08T10:47:58.113Z,21.19
2022-10-08T10:49:00.212Z,20.25
2022-10-08T10:50:02.998Z,20.48
2022-10-08T10:51:23.798Z,20.46
2022-10-08T10:52:37.906Z,19.79
2022-10-08T10:53:56.556Z,19.94
2022-10-08T10:55:20.426Z,19.64
2022-10-08T10:56:23.825Z,19.38
2022-10-08T10:57:54.772Z,19.10
2022-10-08T10:59:15.359Z,19.84
2022-10-08T11:00:26.342Z,19.95
2022-10-08T11:01:47.305Z,19.53
2022-10-08T11:02:49.563Z,20.97
2022-10-08T11:04:08.343Z,21.97
2022-10-08T11:05:19.955Z,22.80
2022-10-08T11:06:30.981Z,23.90
2022-10-08T11:07:53.845Z,25.35
2022-10-08T11:09:00.473Z,25.68
2022-10-08T11:10:17.701Z,26.59
2022-10-08T11:11:52.504Z,27.57
2022-10-08T11:13:12.665Z,26.36
2022-10-08T11:14:33.037Z,25.99
2022-10-08T11:16:23.617Z,26.21
2022-10-08T11:17:59.549Z,26.20
2022-10-08T11:19:04.460Z,26.68
2022-10-08T11:20:18.743Z,26.44
2022-10-08T11:21:58.655Z,25.70
2022-10-08T11:23:09.994Z,25.77
2022-10-08T11:24:19.905Z,26.37
2022-10-08T11:25:21.990Z,26.07
2022-10-08T11:26:42.990Z,25.88
2022-10-08T11:28:23.854Z,25.35
2022-10-08T11:29:47.438Z,25.21
2022-10-08T11:31:03.671Z,24.36
2022-10-08T11:32:13.175Z,23.67
2022-10-08T11:33:17.181Z,23.37
2022-10-08T11:34:36.928Z,23.93
2022-10-08T11:35:49.884Z,24.84
2022-10-08T11:37:11.836Z,24.58
2022-10-08T11:38:25.664Z,25.11
2022-10-08T11:39:46.070Z,24.03
2022-10-08T11:40:55.309Z,23.19
2022-10-08T11:42:10.445Z,21.92
2022-10-08T11:43:24.728Z,22.52
2022-10-08T11:44:27.396Z,22.58
2022-10-08T11:45:33.419Z,22.69
2022-10-08T11:46:36.617Z,21.61
2022-10-08T11:47:41.868Z,20.69
2022-10-08T11:48:43.962Z,20.47
2022-10-08T11:49:52.959Z,20.60
2022-10-08T11:51:21.024Z,20.65
2022-10-08T11:52:30.101Z,20.26
2022-10-08T11:53:32.231Z,19.80
2022-10-08T11:54:35.020Z,20.03
2022-10-08T11:55:38.152Z,19.92
2022-10-08T11:56:47.834Z,19.67
2022-10-08T11:58:17.637Z,19.71
2022-10-08T11:59:36.507Z,19.69
2022-10-08T12:00:40.902Z,19.19
2022-10-08T12:01:55.225Z,19.86
2022-10-08T12:02:57.699Z,19.30
2022-10-08T12:04:22.189Z,19.93
2022-10-08T12:05:24.227Z,19.98
2022-10-08T12:06:34.410Z,20.97
2022-10-08T12:07:39.512Z,21.76
2022-10-08T12:08:50.491Z,22.49
2022-10-08T12:10:07.465Z,23.31
2022-10-08T12:11:40.604Z,24.34
2022-10-08T12:13:02.641Z,24.35
2022-10-08T12:14:10.949Z,24.05
2022-10-08T12:15:25.267Z,23.03
2022-10-08T12:16:47.697Z,23.71
2022-10-08T12:17:54.268Z,23.91
2022-10-08T12:18:58.069Z,24.31
2022-10-08T12:20:03.261Z,24.78
2022-10-08T12:21:17.397Z,25.12
2022-10-08T12:22:25.021Z,24.46
2022-10-08T12:23:29.987Z,25.31
2022-10-08T12:24:37.959Z,25.58
2022-10-08T12:26:02.631Z,25.33
2022-10-08T12:27:17.141Z,26.70
2022-10-08T12:28:19.612Z,27.05
2022-10-08T12:29:48.130Z,27.02
2022-10-08T12:30:52.761Z,26.78
2022-10-08T12:32:02.072Z,25.96
2022-10-08T12:33:04.317Z,25.98
2022-10-08T12:34:19.822Z,27.31
2022-10-08T12:35:27.709Z,26.90
2022-10-08T12:36:39.800Z,27.01
2022-10-08T12:37:50.596Z,26.23
2022-10-08T12:39:35.016Z,24.86
2022-10-08T12:40:59.151Z,24.44
2022-10-08T12:42:07.516Z,24.29
2022-10-08T12:43:22.499Z,25.81
2022-10-08T12:44:28.537Z,26.33
2022-10-08T12:45:39.935Z,25.35
2022-10-08T12:46:55.683Z,26.52
2022-10-08T12:48:23.805Z,27.38
2022-10-08T12:49:41.634Z,26.83
2022-10-08T12:50:49.432Z,27.84
2022-10-08T12:52:16.504Z,27.90
2022-10-08T12:53:18.819Z,28.70
2022-10-08T12:54:23.967Z,28.04
2022-10-08T12:55:27.448Z,27.71
2022-10-08T12:56:30.906Z,28.52
2022-10-08T12:57:41.068Z,28.21
2022-10-08T12:58:46.350Z,28.33
2022-10-08T12:59:50.374Z,27.84
2022-10-08T13:00:57.603Z,28.86
2022-10-08T13:01:59.767Z,28.78
2022-10-08T13:03:12.302Z,30.04
2022-10-08T13:04:26.377Z,29.47
2022-10-08T13:05:39.888Z,28.35
2022-10-08T13:06:41.965Z,27.28
2022-10-08T13:07:44.298Z,27.10
2022-10-08T13:08:49.215Z,27.69
2022-10-08T13:09:55.348Z,26.88
2022-10-08T13:10:59.762Z,26.59
2022-10-08T13:12:05.706Z,26.40
2022-10-08T13:13:35.458Z,24.35
2022-10-08T13:14:39.456Z,24.75
2022-10-08T13:15:42.314Z,24.93
2022-10-08T13:16:47.819Z,24.89
2022-10-08T13:17:50.446Z,24.36
2022-10-08T13:18:57.438Z,23.88
2022-10-08T13:20:16.748Z,23.90
2022-10-08T13:21:30.905Z,25.21
2022-10-08T13:22:32.996Z,25.43
2022-10-08T13:23:44.561Z,24.58
2022-10-08T13:24:46.974Z,24.58
2022-10-08T13:25:49.073Z,25.06
2022-10-08T13:26:53.671Z,25.11
2022-10-08T13:28:13.007Z,25.37
2022-10-08T13:29:24.136Z,25.57
2022-10-08T13:30:29.957Z,25.00
2022-10-08T13:31:35.177Z,25.17
2022-10-08T13:32:39.444Z,24.65
2022-10-08T13:33:41.542Z,24.52
2022-10-08T13:34:46.527Z,25.11
2022-10-08T13:36:02.176Z,26.07
2022-10-08T13:37:08.721Z,26.40
2022-10-08T13:38:21.755Z,25.02
2022-10-08T13:39:27.592Z,24.75
2022-10-08T13:40:29.917Z,24.34
2022-10-08T13:41:32.123Z,24.34
2022-10-08T13:42:39.211Z,24.32
2022-10-08T13:43:41.395Z,23.76
2022-10-08T13:44:43.992Z,24.76
2022-10-08T13:45:46.201Z,24.11
2022-10-08T13:46:48.526Z,23.98
2022-10-08T13:47:51.555Z,25.15
2022-10-08T13:48:53.633Z,25.55
2022-10-08T13:50:01.710Z,25.36
2022-10-08T13:51:04.124Z,25.86
2022-10-08T13:52:06.638Z,26.06
2022-10-08T13:53:10.304Z,26.74
2022-10-08T13:54:13.533Z,26.51
2022-10-08T13:55:26.630Z,26.98
2022-10-08T13:56:28.750Z,26.98
2022-10-08T13:57:30.944Z,26.11
2022-10-08T13:58:33.052Z,26.26
2022-10-08T13:59:35.161Z,26.28
2022-10-08T14:00:40.018Z,26.07
2022-10-08T14:01:42.327Z,25.66
2022-10-08T14:02:44.500Z,25.86
2022-10-08T14:03:46.672Z,25.93
2022-10-08T14:04:48.827Z,26.15
2022-10-08T14:05:50.959Z,25.59
2022-10-08T14:06:56.282Z,26.13
2022-10-08T14:08:02.826Z,25.34
2022-10-08T14:09:06.132Z,24.70
2022-10-08T14:10:12.896Z,24.76
2022-10-08T14:11:17.745Z,24.41
2022-10-08T14:12:30.078Z,23.99
2022-10-08T14:13:32.234Z,23.47
2022-10-08T14:14:34.384Z,22.52
2022-10-08T14:15:37.105Z,22.81
2022-10-08T14:16:39.425Z,22.81
2022-10-08T14:17:41.534Z,22.62
2022-10-08T14:18:43.613Z,22.80
2022-10-08T14:19:45.725Z,22.77
2022-10-08T14:20:50.585Z,22.42
2022-10-08T14:21:55.671Z,22.57
2022-10-08T14:22:58.104Z,22.68